Time;durP1;ratioP1;P1;durP2;ratioP2;P2;SDS_P1;SDS_P2;PMS_P1;PMS_P2;Temp;Humidity;BMP_temperature;BMP_pressure;BME280_temperature;BME280_humidity;BME280_pressure;Samples;Min_cycle;Max_cycle;Signal;HPM_P1;HPM_P2
2023/02/12 00:01:15;;;;;;;2.73;1.90;;;5.10;99.90;;;;;;5073643;28;20435;-78
2023/02/12 00:03:42;;;;;;;4.27;1.57;;;5.10;99.90;;;;;;5073326;28;20472;-77
2023/02/12 00:06:09;;;;;;;3.00;1.43;;;5.10;99.90;;;;;;5072576;28;20472;-80
2023/02/12 00:08:38;;;;;;;1.67;0.97;;;5.10;99.90;;;;;;5073057;28;20941;-80
2023/02/12 00:11:10;;;;;;;2.07;1.37;;;5.10;99.90;;;;;;5073235;28;20454;-80
2023/02/12 00:13:37;;;;;;;6.33;1.73;;;5.10;99.90;;;;;;5073251;28;20453;-80
2023/02/12 00:16:05;;;;;;;3.70;1.23;;;5.10;99.90;;;;;;5073128;28;20497;-81
2023/02/12 00:18:32;;;;;;;9.60;2.67;;;5.10;99.90;;;;;;5073485;28;20454;-80
2023/02/12 00:21:00;;;;;;;1.10;1.00;;;5.10;99.90;;;;;;5073241;28;20449;-80
2023/02/12 00:23:27;;;;;;;7.20;2.20;;;5.10;99.90;;;;;;5073202;28;20452;-80
2023/02/12 00:25:55;;;;;;;2.47;1.40;;;5.10;99.90;;;;;;5073099;28;20454;-80
2023/02/12 00:28:22;;;;;;;1.07;1.03;;;5.00;99.90;;;;;;5073207;28;20515;-80
2023/02/12 00:30:49;;;;;;;4.50;1.57;;;5.00;99.90;;;;;;5072829;28;20449;-80
2023/02/12 00:33:15;;;;;;;4.60;1.90;;;5.00;99.90;;;;;;5073404;28;20452;-80
2023/02/12 00:35:42;;;;;;;3.90;1.20;;;5.00;99.90;;;;;;5072660;28;20484;-80
2023/02/12 00:38:09;;;;;;;1.03;1.00;;;5.00;99.90;;;;;;5073403;28;20441;-80
2023/02/12 00:40:35;;;;;;;4.30;0.90;;;5.00;99.90;;;;;;5072798;28;20461;-80
2023/02/12 00:43:04;;;;;;;5.23;2.00;;;5.00;99.90;;;;;;5073060;28;20851;-80
2023/02/12 00:45:31;;;;;;;1.37;1.27;;;5.00;99.90;;;;;;5075586;28;20855;-80
2023/02/12 00:47:58;;;;;;;3.40;1.63;;;5.00;99.90;;;;;;5073205;28;20468;-81
2023/02/12 00:50:24;;;;;;;3.00;1.80;;;4.90;99.90;;;;;;5073444;28;20453;-80
2023/02/12 00:52:51;;;;;;;0.70;0.67;;;5.00;99.90;;;;;;5072968;28;20445;-80
2023/02/12 00:55:18;;;;;;;3.47;1.60;;;5.00;99.90;;;;;;5073134;28;20445;-80
2023/02/12 00:57:45;;;;;;;6.50;2.37;;;5.00;99.90;;;;;;5072764;28;20502;-80
2023/02/12 01:00:15;;;;;;;1.60;1.20;;;5.00;99.90;;;;;;5072823;28;20457;-81
2023/02/12 01:02:41;;;;;;;0.60;0.57;;;5.00;99.90;;;;;;5072513;28;20446;-80
2023/02/12 01:05:08;;;;;;;1.93;0.70;;;4.90;99.90;;;;;;5072826;28;20456;-80
2023/02/12 01:07:36;;;;;;;3.80;1.27;;;4.90;99.90;;;;;;5072593;28;21002;-80
2023/02/12 01:10:02;;;;;;;7.03;1.93;;;4.90;99.90;;;;;;5072764;28;20544;-80
2023/02/12 01:12:29;;;;;;;6.13;2.07;;;4.80;99.90;;;;;;5072716;28;20449;-80
2023/02/12 01:14:56;;;;;;;0.90;0.90;;;4.90;99.90;;;;;;5072703;28;20449;-80
2023/02/12 01:17:24;;;;;;;4.90;1.30;;;4.90;99.90;;;;;;5075188;28;20883;-80
2023/02/12 01:19:50;;;;;;;2.97;1.60;;;4.90;99.90;;;;;;5076289;28;20450;-81
2023/02/12 01:22:17;;;;;;;2.17;1.00;;;4.90;99.90;;;;;;5076306;28;20457;-80
2023/02/12 01:24:44;;;;;;;2.90;1.90;;;4.90;99.90;;;;;;5075904;28;20953;-80
2023/02/12 01:27:11;;;;;;;2.53;1.67;;;4.90;99.90;;;;;;5076149;28;20461;-80
2023/02/12 01:29:38;;;;;;;1.03;0.87;;;4.90;99.90;;;;;;5076239;28;20456;-80
2023/02/12 01:32:05;;;;;;;11.03;1.63;;;4.90;99.90;;;;;;5076114;28;20444;-80
2023/02/12 01:34:33;;;;;;;5.17;2.73;;;4.90;99.90;;;;;;5076089;28;20464;-80
2023/02/12 01:37:00;;;;;;;3.30;1.40;;;4.90;99.90;;;;;;5075730;28;20485;-80
2023/02/12 01:39:26;;;;;;;2.50;1.00;;;5.00;99.90;;;;;;5076001;28;20453;-80
2023/02/12 01:41:53;;;;;;;1.47;1.00;;;4.90;99.90;;;;;;5076165;28;20457;-80
2023/02/12 01:44:22;;;;;;;2.00;1.10;;;4.90;99.90;;;;;;5075559;28;20937;-80
2023/02/12 01:46:54;;;;;;;1.23;1.10;;;5.00;99.90;;;;;;5075785;28;20461;-80
2023/02/12 01:49:24;;;;;;;1.50;1.37;;;5.00;99.90;;;;;;5075638;28;20779;-80
2023/02/12 01:51:55;;;;;;;12.57;2.47;;;5.00;99.90;;;;;;5075946;28;20457;-81
2023/02/12 01:54:24;;;;;;;2.53;0.80;;;5.00;99.90;;;;;;5075425;28;20442;-80
2023/02/12 01:56:51;;;;;;;15.40;2.90;;;5.00;99.90;;;;;;5075429;28;20473;-80
2023/02/12 01:59:19;;;;;;;1.73;1.57;;;4.90;99.90;;;;;;5075770;28;20457;-80
2023/02/12 02:01:46;;;;;;;4.00;1.83;;;4.90;99.90;;;;;;5075195;28;20824;-80
2023/02/12 02:04:17;;;;;;;3.70;1.40;;;5.00;99.90;;;;;;5075223;28;20825;-80
2023/02/12 02:06:48;;;;;;;5.13;1.87;;;4.90;99.90;;;;;;5075407;28;20473;-80
2023/02/12 02:09:19;;;;;;;3.27;2.90;;;5.00;99.90;;;;;;5075497;28;20452;-80
2023/02/12 02:14:32;;;;;;;4.43;2.97;;;5.00;99.90;;;;;;5075150;28;20433;-80
2023/02/12 02:17:31;;;;;;;1.30;1.20;;;5.00;99.90;;;;;;5075187;28;20485;-80
2023/02/12 02:20:35;;;;;;;1.43;1.33;;;5.00;99.90;;;;;;5063270;28;20449;-80
2023/02/12 02:23:18;;;;;;;1.00;0.90;;;5.00;99.90;;;;;;5075217;28;20429;-80
2023/02/12 02:26:23;;;;;;;2.10;0.80;;;5.00;99.90;;;;;;5075071;28;20430;-80
2023/02/12 02:29:27;;;;;;;2.37;0.93;;;5.00;99.90;;;;;;5074296;28;20429;-80
2023/02/12 02:32:02;;;;;;;1.20;1.10;;;5.00;99.90;;;;;;5012975;28;20455;-81
2023/02/12 02:34:39;;;;;;;2.30;1.20;;;5.00;99.90;;;;;;5063196;28;20453;-80
2023/02/12 02:37:14;;;;;;;7.03;1.97;;;4.90;99.90;;;;;;5074401;28;20493;-80
2023/02/12 02:39:48;;;;;;;2.27;1.53;;;4.90;99.90;;;;;;5074901;28;20437;-81
2023/02/12 02:42:20;;;;;;;1.60;1.43;;;4.90;99.90;;;;;;5074816;28;20438;-80
2023/02/12 02:44:52;;;;;;;9.97;2.90;;;4.80;99.90;;;;;;5074795;28;20426;-80
2023/02/12 02:47:25;;;;;;;8.83;1.77;;;4.90;99.90;;;;;;5074606;28;20468;-80
2023/02/12 02:49:56;;;;;;;5.23;2.00;;;4.90;99.90;;;;;;5074704;28;20496;-80
2023/02/12 02:52:28;;;;;;;1.67;1.10;;;4.90;99.90;;;;;;5074585;28;20438;-80
2023/02/12 02:55:00;;;;;;;1.07;1.07;;;4.80;99.90;;;;;;5074587;28;20440;-80
2023/02/12 02:57:31;;;;;;;2.47;2.37;;;4.80;99.90;;;;;;5074407;28;20564;-81
2023/02/12 03:00:05;;;;;;;2.33;1.53;;;4.80;99.90;;;;;;5074424;28;20454;-81
2023/02/12 03:02:38;;;;;;;1.90;1.77;;;4.80;99.90;;;;;;5074048;28;20434;-80
2023/02/12 03:05:09;;;;;;;2.13;1.60;;;4.80;99.90;;;;;;5074334;28;20469;-82
2023/02/12 03:07:40;;;;;;;4.10;1.80;;;4.90;99.90;;;;;;5074146;28;20503;-80
2023/02/12 03:10:13;;;;;;;1.50;1.40;;;4.90;99.90;;;;;;5074229;28;20445;-80
2023/02/12 03:12:48;;;;;;;2.10;1.77;;;4.90;99.90;;;;;;5074210;28;20438;-80
2023/02/12 03:15:21;;;;;;;1.43;0.97;;;4.90;99.90;;;;;;5074116;28;20456;-80
2023/02/12 03:17:50;;;;;;;2.13;1.33;;;4.90;99.90;;;;;;5074009;28;20899;-80
2023/02/12 03:20:19;;;;;;;2.40;1.23;;;4.90;99.90;;;;;;5073962;28;20452;-80
2023/02/12 03:22:51;;;;;;;2.07;1.33;;;4.90;99.90;;;;;;5074008;28;20450;-80
2023/02/12 03:25:23;;;;;;;1.90;1.27;;;4.90;99.90;;;;;;5073620;28;20993;-80
2023/02/12 03:27:57;;;;;;;5.87;1.63;;;4.90;99.90;;;;;;5073559;28;20868;-80
2023/02/12 03:30:26;;;;;;;3.33;1.77;;;5.00;99.90;;;;;;5073841;28;20438;-81
2023/02/12 03:33:03;;;;;;;8.73;1.77;;;5.00;99.90;;;;;;5073838;28;20461;-80
2023/02/12 03:35:33;;;;;;;9.17;2.47;;;4.90;99.90;;;;;;5073572;28;20477;-80
2023/02/12 03:38:05;;;;;;;9.17;2.60;;;5.00;99.90;;;;;;5073575;28;20512;-80
2023/02/12 03:40:37;;;;;;;0.80;0.80;;;4.90;99.90;;;;;;5073739;28;20438;-80
2023/02/12 03:43:09;;;;;;;1.30;1.20;;;5.00;99.90;;;;;;5073305;28;20928;-80
2023/02/12 03:45:44;;;;;;;1.57;1.53;;;4.90;99.90;;;;;;5073619;28;20436;-80
2023/02/12 03:48:19;;;;;;;1.73;1.40;;;4.90;99.90;;;;;;5073653;28;20429;-80
2023/02/12 03:50:53;;;;;;;6.93;2.33;;;4.90;99.90;;;;;;5073538;28;20436;-82
2023/02/12 03:53:20;;;;;;;1.27;0.77;;;4.90;99.90;;;;;;5073599;28;20418;-81
2023/02/12 03:55:51;;;;;;;1.10;0.73;;;4.90;99.90;;;;;;5073142;28;20446;-80
2023/02/12 03:58:23;;;;;;;4.40;1.20;;;4.90;99.90;;;;;;5073439;28;20468;-81
2023/02/12 04:00:50;;;;;;;9.70;1.23;;;4.90;99.90;;;;;;5073445;28;20430;-80
2023/02/12 04:03:19;;;;;;;2.60;2.37;;;4.90;99.90;;;;;;5073128;28;20960;-80
2023/02/12 04:05:45;;;;;;;1.83;1.27;;;5.00;99.90;;;;;;5072911;28;20821;-80
2023/02/12 04:08:13;;;;;;;1.60;1.20;;;5.00;99.90;;;;;;5073366;28;20449;-81
2023/02/12 04:10:52;;;;;;;1.80;1.60;;;5.00;99.90;;;;;;5073169;28;20449;-82
2023/02/12 04:13:25;;;;;;;4.70;2.53;;;5.00;99.90;;;;;;5073409;28;20430;-81
2023/02/12 04:16:06;;;;;;;2.33;2.23;;;5.00;99.90;;;;;;5073208;28;20828;-80
2023/02/12 04:18:41;;;;;;;3.10;2.20;;;4.90;99.90;;;;;;5073278;28;20472;-80
2023/02/12 04:21:20;;;;;;;5.03;1.13;;;4.90;99.90;;;;;;5073284;28;20473;-80
2023/02/12 04:24:02;;;;;;;4.60;2.83;;;4.90;99.90;;;;;;5073265;28;20430;-81
2023/02/12 04:26:37;;;;;;;7.00;1.93;;;4.90;99.90;;;;;;5072859;28;20992;-81
2023/02/12 04:29:14;;;;;;;5.67;1.67;;;4.90;99.90;;;;;;5073234;28;20440;-80
2023/02/12 04:31:48;;;;;;;2.63;2.03;;;4.90;99.90;;;;;;5073202;28;20434;-80
2023/02/12 04:34:24;;;;;;;4.47;1.53;;;4.80;99.90;;;;;;5072913;28;20436;-80
2023/02/12 04:36:56;;;;;;;3.73;3.17;;;4.80;99.90;;;;;;5072569;28;20488;-80
2023/02/12 04:39:28;;;;;;;2.87;1.20;;;4.90;99.90;;;;;;5073128;28;20434;-80
2023/02/12 04:41:58;;;;;;;4.90;2.30;;;4.90;99.90;;;;;;5072798;28;20805;-80
2023/02/12 04:44:27;;;;;;;1.90;1.40;;;4.90;99.90;;;;;;5073124;28;20448;-80
2023/02/12 04:46:54;;;;;;;17.53;2.17;;;4.90;99.90;;;;;;5072978;28;20465;-81
2023/02/12 04:49:23;;;;;;;2.90;1.20;;;4.90;99.90;;;;;;5072986;28;20449;-80
2023/02/12 04:51:50;;;;;;;10.83;2.67;;;4.90;99.90;;;;;;5075241;28;20445;-80
2023/02/12 04:54:19;;;;;;;7.90;2.00;;;4.80;99.90;;;;;;5076820;28;20457;-80
2023/02/12 04:56:46;;;;;;;1.63;1.47;;;4.80;99.90;;;;;;5076713;28;20473;-80
2023/02/12 04:59:13;;;;;;;10.23;2.53;;;4.80;99.90;;;;;;5076790;28;20438;-80
2023/02/12 05:01:41;;;;;;;3.63;2.90;;;4.80;99.90;;;;;;5076653;28;20457;-81
2023/02/12 05:04:08;;;;;;;2.90;2.10;;;4.80;99.90;;;;;;5076596;28;20449;-80
2023/02/12 05:06:37;;;;;;;3.77;1.43;;;4.80;99.90;;;;;;5076105;28;20469;-81
2023/02/12 05:09:05;;;;;;;0.50;0.40;;;4.80;99.90;;;;;;5076537;28;20441;-80
2023/02/12 05:11:32;;;;;;;2.30;1.63;;;4.80;99.90;;;;;;5076456;28;20450;-81
2023/02/12 05:13:59;;;;;;;3.77;1.50;;;4.80;99.90;;;;;;5076457;28;20456;-82
2023/02/12 05:16:25;;;;;;;3.27;1.63;;;4.80;99.90;;;;;;5076568;28;20836;-80
2023/02/12 05:18:52;;;;;;;2.30;1.30;;;4.80;99.90;;;;;;5076341;28;20488;-81
2023/02/12 05:21:19;;;;;;;4.43;2.50;;;4.70;99.90;;;;;;5076341;28;20461;-81
2023/02/12 05:23:47;;;;;;;7.60;1.60;;;4.70;99.90;;;;;;5076282;28;20449;-81
2023/02/12 05:26:17;;;;;;;2.93;1.23;;;4.70;99.90;;;;;;5076179;28;20474;-80
2023/02/12 05:28:44;;;;;;;2.77;2.10;;;4.60;99.90;;;;;;5077023;28;20442;-81
2023/02/12 05:31:14;;;;;;;4.70;1.73;;;4.70;99.90;;;;;;5075829;28;20441;-81
2023/02/12 05:33:42;;;;;;;2.43;2.03;;;4.60;99.90;;;;;;5075826;28;20907;-81
2023/02/12 05:36:10;;;;;;;2.57;0.60;;;4.60;99.90;;;;;;5075600;28;20484;-80
2023/02/12 05:38:37;;;;;;;2.37;1.40;;;4.60;99.90;;;;;;5075926;28;20481;-81
2023/02/12 05:41:07;;;;;;;3.37;1.80;;;4.60;99.90;;;;;;5075989;28;20468;-80
2023/02/12 05:43:34;;;;;;;4.10;1.00;;;4.50;99.90;;;;;;5075952;28;20433;-81
2023/02/12 05:46:03;;;;;;;1.40;1.33;;;4.50;99.90;;;;;;5075850;28;20824;-81
2023/02/12 05:48:30;;;;;;;1.33;1.23;;;4.50;99.90;;;;;;5075824;28;20460;-80
2023/02/12 05:51:02;;;;;;;1.50;1.43;;;4.50;99.90;;;;;;5075797;28;20449;-80
2023/02/12 05:53:29;;;;;;;2.07;1.23;;;4.60;99.90;;;;;;5075811;28;20458;-81
2023/02/12 05:56:05;;;;;;;2.73;0.90;;;4.50;99.90;;;;;;5075628;28;20445;-81
2023/02/12 05:58:33;;;;;;;4.00;1.10;;;4.60;99.90;;;;;;5075342;28;20972;-81
2023/02/12 06:01:00;;;;;;;3.63;1.63;;;4.60;99.90;;;;;;5075650;28;20453;-81
2023/02/12 06:03:27;;;;;;;6.17;1.77;;;4.50;99.90;;;;;;5074282;28;20575;-81
2023/02/12 06:05:54;;;;;;;5.37;1.37;;;4.50;99.90;;;;;;5075444;28;20445;-81
2023/02/12 06:08:21;;;;;;;4.43;1.13;;;4.50;99.90;;;;;;5076049;28;20472;-81
2023/02/12 06:10:47;;;;;;;3.77;2.77;;;4.50;99.90;;;;;;5075446;28;20461;-81
2023/02/12 06:13:14;;;;;;;1.17;0.80;;;4.50;99.90;;;;;;5075397;28;20441;-81
2023/02/12 06:15:42;;;;;;;2.73;2.27;;;4.50;99.90;;;;;;5075511;28;20956;-81
2023/02/12 06:18:09;;;;;;;4.07;3.00;;;4.60;99.90;;;;;;5075200;28;20493;-81
2023/02/12 06:20:38;;;;;;;1.53;1.43;;;4.50;99.90;;;;;;5075283;28;20456;-81
2023/02/12 06:23:04;;;;;;;4.23;2.70;;;4.50;99.90;;;;;;5075248;28;20453;-81
2023/02/12 06:25:31;;;;;;;5.83;3.13;;;4.40;99.90;;;;;;5075096;28;20457;-81
2023/02/12 06:27:58;;;;;;;4.83;2.57;;;4.40;99.90;;;;;;5075096;28;20450;-81
2023/02/12 06:30:24;;;;;;;3.67;2.20;;;4.40;99.90;;;;;;5074990;28;20450;-80
2023/02/12 06:32:52;;;;;;;3.57;2.00;;;4.30;99.90;;;;;;5075004;28;20449;-81
2023/02/12 06:35:19;;;;;;;2.40;2.20;;;4.30;99.90;;;;;;5075170;28;20492;-80
2023/02/12 06:37:46;;;;;;;5.10;2.00;;;4.30;99.90;;;;;;5074503;28;20489;-81
2023/02/12 06:40:13;;;;;;;4.20;2.30;;;4.30;99.90;;;;;;5074871;28;20465;-81
2023/02/12 06:42:40;;;;;;;5.53;2.03;;;4.30;99.90;;;;;;5074774;28;20449;-81
2023/02/12 06:45:07;;;;;;;3.00;1.77;;;4.30;99.90;;;;;;5074777;28;20852;-80
2023/02/12 06:47:34;;;;;;;3.17;2.17;;;4.30;99.90;;;;;;5074616;28;20506;-81
2023/02/12 06:50:02;;;;;;;4.33;1.87;;;4.30;99.90;;;;;;5074672;28;20855;-81
2023/02/12 06:52:29;;;;;;;9.70;1.80;;;4.40;99.90;;;;;;5074303;28;20945;-81
2023/02/12 06:54:55;;;;;;;3.90;1.53;;;4.40;99.90;;;;;;5074207;28;20949;-81
2023/02/12 06:57:22;;;;;;;3.47;2.20;;;4.40;99.90;;;;;;5074448;28;20466;-81
2023/02/12 06:59:49;;;;;;;1.63;0.83;;;4.40;99.90;;;;;;5074033;28;20500;-81
2023/02/12 07:02:16;;;;;;;8.37;2.33;;;4.50;99.90;;;;;;5074352;28;20545;-81
2023/02/12 07:04:43;;;;;;;3.13;2.13;;;4.50;99.90;;;;;;5074299;28;20483;-81
2023/02/12 07:07:11;;;;;;;9.43;1.87;;;4.50;99.90;;;;;;5074171;28;20465;-82
2023/02/12 07:09:38;;;;;;;5.53;1.77;;;4.50;99.90;;;;;;5074272;28;20449;-81
2023/02/12 07:12:05;;;;;;;11.73;2.17;;;4.50;99.90;;;;;;5074212;28;20457;-81
2023/02/12 07:14:31;;;;;;;8.03;3.43;;;4.50;99.90;;;;;;5073786;28;20810;-81
2023/02/12 07:17:02;;;;;;;2.77;1.83;;;4.60;99.90;;;;;;5074057;28;20473;-81
2023/02/12 07:19:29;;;;;;;8.50;1.50;;;4.60;99.90;;;;;;5073962;28;20469;-81
2023/02/12 07:21:56;;;;;;;3.60;1.73;;;4.70;99.90;;;;;;5074053;28;20453;-81
2023/02/12 07:24:24;;;;;;;2.87;1.37;;;4.80;99.90;;;;;;5073649;28;20449;-81
2023/02/12 07:26:51;;;;;;;1.43;1.20;;;4.90;99.90;;;;;;5073577;28;20469;-81
2023/02/12 07:29:17;;;;;;;12.53;4.10;;;4.90;99.90;;;;;;5073890;28;20445;-81
2023/02/12 07:31:44;;;;;;;1.90;1.47;;;4.90;99.90;;;;;;5073834;28;20456;-81
2023/02/12 07:34:11;;;;;;;2.20;1.40;;;5.00;99.90;;;;;;5073871;28;20563;-81
2023/02/12 07:36:38;;;;;;;3.10;1.83;;;5.10;99.90;;;;;;5073333;28;20484;-82
2023/02/12 07:39:05;;;;;;;5.60;3.03;;;5.10;99.90;;;;;;5073379;28;20485;-81
2023/02/12 07:41:35;;;;;;;11.90;2.27;;;5.20;99.90;;;;;;5073462;28;20445;-81
2023/02/12 07:44:06;;;;;;;7.40;2.90;;;5.30;99.90;;;;;;5073603;28;20540;-81
2023/02/12 07:46:35;;;;;;;4.70;2.40;;;5.50;99.90;;;;;;5073654;28;20515;-80
2023/02/12 07:49:04;;;;;;;15.50;3.70;;;5.50;99.90;;;;;;5073371;28;20469;-81
2023/02/12 07:51:32;;;;;;;6.00;2.27;;;5.70;99.90;;;;;;5073518;28;20456;-81
2023/02/12 07:54:00;;;;;;;4.47;2.07;;;5.70;99.90;;;;;;5073510;28;20457;-82
2023/02/12 07:56:30;;;;;;;2.63;1.23;;;5.80;99.90;;;;;;5073062;28;20465;-80
2023/02/12 07:59:00;;;;;;;2.40;1.50;;;5.80;99.90;;;;;;5073445;28;20466;-81
2023/02/12 08:01:29;;;;;;;2.80;1.53;;;5.90;99.90;;;;;;5073386;28;20457;-81
2023/02/12 08:03:58;;;;;;;5.10;1.40;;;5.90;99.90;;;;;;5073132;28;20449;-81
2023/02/12 08:06:27;;;;;;;2.87;1.50;;;5.90;99.90;;;;;;5072986;28;20997;-81
2023/02/12 08:08:56;;;;;;;2.20;1.80;;;6.00;99.90;;;;;;5073056;28;20446;-81
2023/02/12 08:11:23;;;;;;;1.70;1.13;;;6.00;99.90;;;;;;5073288;28;20449;-81
2023/02/12 08:13:50;;;;;;;1.33;1.10;;;6.00;99.90;;;;;;5073313;28;20446;-81
2023/02/12 08:16:20;;;;;;;1.13;1.03;;;6.00;99.90;;;;;;5073274;28;20457;-81
2023/02/12 08:18:48;;;;;;;0.90;0.73;;;6.00;99.90;;;;;;5073245;28;20480;-80
2023/02/12 08:21:17;;;;;;;4.40;1.80;;;6.00;99.90;;;;;;5072900;28;20975;-81
2023/02/12 08:23:44;;;;;;;4.73;2.10;;;6.00;99.90;;;;;;5073164;28;20449;-82
2023/02/12 08:26:13;;;;;;;6.80;1.93;;;6.00;99.90;;;;;;5074040;28;20465;-81
2023/02/12 08:28:42;;;;;;;3.17;1.30;;;6.00;99.90;;;;;;5077026;28;20928;-81
2023/02/12 08:31:11;;;;;;;3.90;2.17;;;6.00;99.90;;;;;;5077246;28;20473;-81
2023/02/12 08:33:39;;;;;;;5.70;2.43;;;6.00;99.90;;;;;;5077272;28;20453;-81
2023/02/12 08:36:08;;;;;;;2.60;2.50;;;6.00;99.90;;;;;;5076698;28;20485;-82
2023/02/12 08:38:36;;;;;;;2.13;1.57;;;6.00;99.90;;;;;;5077083;28;20489;-81
2023/02/12 08:41:04;;;;;;;9.20;2.50;;;6.00;99.90;;;;;;5077054;28;20449;-81
2023/02/12 08:43:31;;;;;;;3.40;3.10;;;6.10;99.90;;;;;;5076605;28;20820;-81
2023/02/12 08:46:05;;;;;;;4.67;2.63;;;6.10;99.90;;;;;;5076578;28;20941;-81
2023/02/12 08:48:32;;;;;;;6.33;2.00;;;6.10;99.90;;;;;;5076644;28;20937;-81
2023/02/12 08:51:06;;;;;;;1.47;1.10;;;6.10;99.90;;;;;;5076948;28;20445;-81
2023/02/12 08:53:33;;;;;;;4.97;2.70;;;6.20;99.90;;;;;;5076565;28;20426;-81
2023/02/12 08:56:00;;;;;;;3.30;2.80;;;6.20;99.90;;;;;;5076727;28;20476;-81
2023/02/12 08:58:27;;;;;;;5.80;4.10;;;6.20;99.90;;;;;;5076698;28;20491;-81
2023/02/12 09:00:54;;;;;;;4.67;2.47;;;6.20;99.90;;;;;;5076452;28;20813;-81
2023/02/12 09:03:20;;;;;;;4.83;2.70;;;6.20;99.90;;;;;;5076625;28;20460;-81
2023/02/12 09:05:47;;;;;;;4.07;2.17;;;6.10;99.90;;;;;;5076551;28;20459;-81
2023/02/12 09:08:15;;;;;;;5.70;2.63;;;6.10;99.90;;;;;;5076517;28;20514;-82
2023/02/12 09:10:43;;;;;;;1.87;1.40;;;6.20;99.90;;;;;;5076278;28;20434;-81
2023/02/12 09:13:12;;;;;;;6.83;2.50;;;6.20;99.90;;;;;;5076227;28;20952;-82
2023/02/12 09:15:39;;;;;;;2.57;2.17;;;6.20;99.90;;;;;;5076235;28;20475;-82
2023/02/12 09:18:06;;;;;;;5.57;1.43;;;6.40;99.90;;;;;;5076463;28;20456;-83
2023/02/12 09:20:36;;;;;;;5.53;2.17;;;6.50;99.90;;;;;;5075959;28;21027;-82
2023/02/12 09:23:03;;;;;;;10.27;2.57;;;6.50;99.90;;;;;;5076369;28;20449;-82
2023/02/12 09:25:33;;;;;;;5.43;1.90;;;6.60;99.90;;;;;;5075902;28;20968;-82
2023/02/12 09:28:00;;;;;;;3.87;1.33;;;6.60;99.90;;;;;;5076463;28;20472;-82
2023/02/12 09:30:26;;;;;;;3.40;1.20;;;6.50;99.90;;;;;;5076232;28;20452;-82
2023/02/12 09:32:53;;;;;;;4.17;2.70;;;6.50;99.90;;;;;;5076129;28;20823;-82
2023/02/12 09:35:20;;;;;;;2.10;1.87;;;6.40;99.90;;;;;;5075914;28;20488;-83
2023/02/12 09:37:46;;;;;;;4.63;2.13;;;6.60;99.90;;;;;;5075370;28;20841;-83
2023/02/12 09:40:20;;;;;;;9.70;4.57;;;6.60;99.90;;;;;;5075987;28;20484;-83
2023/02/12 09:43:07;;;;;;;9.70;5.00;;;6.80;99.90;;;;;;5076079;28;20797;-83
2023/02/12 09:45:38;;;;;;;8.10;1.80;;;6.90;99.90;;;;;;5075887;28;20437;-83
2023/02/12 09:48:18;;;;;;;1.80;1.43;;;7.00;99.90;;;;;;5075962;28;20487;-83
2023/02/12 09:50:51;;;;;;;4.43;1.73;;;7.10;99.90;;;;;;5076098;28;20449;-83
2023/02/12 09:53:22;;;;;;;3.37;1.30;;;7.20;99.90;;;;;;5075913;28;20441;-83
2023/02/12 09:55:49;;;;;;;1.43;1.10;;;7.20;99.90;;;;;;5075653;28;20446;-83
2023/02/12 09:58:23;;;;;;;10.00;2.27;;;7.20;99.90;;;;;;5075395;28;20456;-83
2023/02/12 10:00:50;;;;;;;3.80;1.40;;;7.30;99.90;;;;;;5075403;28;20418;-83
2023/02/12 10:03:18;;;;;;;3.40;1.57;;;7.20;99.90;;;;;;5075622;28;20442;-83
2023/02/12 10:05:50;;;;;;;3.03;1.03;;;7.20;99.90;;;;;;5075197;28;20925;-83
2023/02/12 10:08:39;;;;;;;1.33;0.63;;;7.30;99.90;;;;;;5075293;28;20943;-83
2023/02/12 10:11:22;;;;;;;1.37;0.87;;;7.30;99.90;;;;;;5075457;28;20430;-83
2023/02/12 10:13:59;;;;;;;3.47;2.00;;;7.30;99.90;;;;;;5075463;28;20441;-83
2023/02/12 10:16:41;;;;;;;1.23;0.60;;;7.40;99.90;;;;;;5075326;28;20469;-82
2023/02/12 10:19:27;;;;;;;1.07;0.87;;;7.40;99.90;;;;;;5075319;28;20465;-82
2023/02/12 10:22:01;;;;;;;0.33;0.30;;;7.50;99.90;;;;;;5075043;28;20932;-83
2023/02/12 10:24:57;;;;;;;0.77;0.57;;;7.50;99.90;;;;;;5075235;28;20434;-83
2023/02/12 10:27:34;;;;;;;0.53;0.53;;;7.50;99.90;;;;;;5075191;28;20473;-83
2023/02/12 10:30:13;;;;;;;1.70;1.23;;;7.50;99.90;;;;;;5075113;28;20437;-83
2023/02/12 10:32:43;;;;;;;5.00;2.93;;;7.60;99.90;;;;;;5075070;28;20442;-84
2023/02/12 10:35:14;;;;;;;1.77;0.60;;;7.70;99.90;;;;;;5074831;28;20454;-82
2023/02/12 10:37:45;;;;;;;1.00;0.60;;;7.70;99.90;;;;;;5074898;28;20826;-83
2023/02/12 10:40:19;;;;;;;6.83;1.53;;;7.60;99.90;;;;;;5074852;28;20473;-83
2023/02/12 10:42:48;;;;;;;2.80;1.80;;;7.60;99.90;;;;;;5075965;28;20434;-82
2023/02/12 10:45:18;;;;;;;4.87;1.70;;;7.60;99.90;;;;;;5074759;28;20454;-83
2023/02/12 10:47:47;;;;;;;2.60;1.83;;;7.60;99.90;;;;;;5075620;28;20469;-83
2023/02/12 10:50:24;;;;;;;8.77;3.00;;;7.70;99.90;;;;;;5074670;28;20442;-82
2023/02/12 10:52:55;;;;;;;3.13;2.17;;;7.60;99.90;;;;;;5074401;28;20436;-83
2023/02/12 10:55:28;;;;;;;1.13;1.03;;;7.70;99.90;;;;;;5074849;28;20430;-83
2023/02/12 10:57:56;;;;;;;3.10;1.30;;;7.80;99.90;;;;;;5074498;28;20492;-83
2023/02/12 11:00:30;;;;;;;1.20;0.80;;;7.70;99.90;;;;;;5074361;28;20482;-83
2023/02/12 11:03:06;;;;;;;3.77;1.40;;;7.70;99.90;;;;;;5074529;28;20436;-83
2023/02/12 11:05:34;;;;;;;0.97;0.97;;;7.80;99.90;;;;;;5074146;28;20434;-83
2023/02/12 11:08:01;;;;;;;2.57;2.37;;;7.90;99.90;;;;;;5074209;28;20542;-83
2023/02/12 11:10:30;;;;;;;6.37;1.80;;;8.10;99.90;;;;;;5073981;28;20456;-83
2023/02/12 11:12:58;;;;;;;2.20;1.30;;;8.30;99.90;;;;;;5074176;28;20456;-83
2023/02/12 11:15:38;;;;;;;1.60;1.23;;;8.50;99.90;;;;;;5074503;28;20449;-83
2023/02/12 11:18:07;;;;;;;5.03;1.17;;;8.60;99.90;;;;;;5074138;28;20429;-83
2023/02/12 11:20:39;;;;;;;5.00;2.27;;;8.50;99.90;;;;;;5074070;28;20520;-83
2023/02/12 11:23:23;;;;;;;1.60;0.90;;;8.30;99.90;;;;;;5074132;28;20434;-82
2023/02/12 11:25:57;;;;;;;2.50;2.40;;;8.20;99.90;;;;;;5073945;28;20448;-83
2023/02/12 11:28:23;;;;;;;3.33;1.83;;;8.10;99.90;;;;;;5073943;28;20433;-83
2023/02/12 11:30:55;;;;;;;1.53;1.03;;;8.30;99.90;;;;;;5073906;28;20449;-82
2023/02/12 11:33:25;;;;;;;7.23;1.10;;;8.40;99.90;;;;;;5074218;28;20414;-83
2023/02/12 11:35:54;;;;;;;4.37;2.53;;;8.50;99.90;;;;;;5073343;28;20482;-82
2023/02/12 11:38:25;;;;;;;2.10;1.03;;;8.60;99.90;;;;;;5073503;28;20886;-83
2023/02/12 11:40:57;;;;;;;5.80;1.13;;;8.70;99.90;;;;;;5073471;28;20801;-83
2023/02/12 11:43:24;;;;;;;9.77;1.60;;;8.60;99.90;;;;;;5073814;28;20434;-83
2023/02/12 11:45:55;;;;;;;8.97;1.90;;;8.60;99.90;;;;;;5073611;28;20503;-83
2023/02/12 11:48:25;;;;;;;0.80;0.73;;;8.60;99.90;;;;;;5073876;28;20437;-83
2023/02/12 11:50:54;;;;;;;2.30;0.57;;;8.50;99.90;;;;;;5073677;28;20430;-83
2023/02/12 11:53:24;;;;;;;0.40;0.40;;;8.50;99.90;;;;;;5073586;28;20452;-83
2023/02/12 11:55:57;;;;;;;2.63;0.80;;;8.40;99.90;;;;;;5074576;28;20438;-83
2023/02/12 11:58:25;;;;;;;1.13;0.60;;;8.40;99.90;;;;;;5073806;28;20446;-83
2023/02/12 12:01:00;;;;;;;1.30;0.73;;;8.40;99.90;;;;;;5073385;28;20484;-83
2023/02/12 12:03:34;;;;;;;3.83;1.43;;;8.30;99.90;;;;;;5073530;28;20437;-83
2023/02/12 12:06:06;;;;;;;0.60;0.60;;;8.30;99.90;;;;;;5073373;28;20469;-82
2023/02/12 12:08:40;;;;;;;1.00;1.00;;;8.30;99.90;;;;;;5073159;28;20526;-82
2023/02/12 12:11:13;;;;;;;3.53;0.90;;;8.30;99.90;;;;;;5073060;28;20923;-82
2023/02/12 12:13:46;;;;;;;5.70;1.53;;;8.30;99.90;;;;;;5073171;28;20434;-82
2023/02/12 12:22:02;;;;;;;1.57;0.83;;;8.20;99.90;;;;;;5073060;28;20545;-83
2023/02/12 12:24:38;;;;;;;2.40;1.10;;;8.10;99.90;;;;;;5072980;28;20928;-83
2023/02/12 12:27:23;;;;;;;1.20;0.70;;;8.10;99.90;;;;;;5073172;28;20469;-83
2023/02/12 12:29:59;;;;;;;1.23;0.70;;;8.20;99.90;;;;;;5072900;28;20481;-83
2023/02/12 12:32:31;;;;;;;0.70;0.60;;;8.20;99.90;;;;;;5072934;28;20430;-83
2023/02/12 12:34:58;;;;;;;0.60;0.57;;;8.10;99.90;;;;;;5073188;28;20438;-83
2023/02/12 12:37:36;;;;;;;1.20;1.20;;;8.10;99.90;;;;;;5072774;28;20973;-83
2023/02/12 12:40:23;;;;;;;1.33;1.10;;;8.10;99.90;;;;;;5073064;28;20480;-83
2023/02/12 12:43:02;;;;;;;2.13;0.60;;;8.10;99.90;;;;;;5073153;28;20439;-82
2023/02/12 12:45:46;;;;;;;0.87;0.83;;;7.90;99.90;;;;;;5073133;28;20449;-83
2023/02/12 12:48:25;;;;;;;3.03;0.93;;;7.80;99.90;;;;;;5073099;28;20438;-83
2023/02/12 12:51:09;;;;;;;1.37;0.50;;;7.90;99.90;;;;;;5073002;28;20434;-83
2023/02/12 12:53:50;;;;;;;1.03;0.70;;;7.90;99.90;;;;;;5073069;28;20441;-82
2023/02/12 12:56:29;;;;;;;1.47;0.50;;;7.90;99.90;;;;;;5072655;28;20472;-83
2023/02/12 12:59:13;;;;;;;1.57;1.30;;;8.00;99.90;;;;;;5072714;28;20441;-83
2023/02/12 13:02:04;;;;;;;0.70;0.70;;;8.00;99.90;;;;;;5072854;28;20472;-83
2023/02/12 13:05:14;;;;;;;0.90;0.70;;;8.00;99.90;;;;;;5039588;28;20448;-83
2023/02/12 13:07:52;;;;;;;2.67;0.50;;;8.00;99.90;;;;;;5072493;28;21007;-83
2023/02/12 13:10:33;;;;;;;0.70;0.70;;;8.10;99.90;;;;;;5072567;28;20897;-83
2023/02/12 13:13:25;;;;;;;0.60;0.50;;;8.20;99.90;;;;;;5075268;28;20430;-83
2023/02/12 13:15:59;;;;;;;3.20;0.60;;;8.30;99.90;;;;;;5076354;28;20494;-84
2023/02/12 13:18:37;;;;;;;2.33;1.07;;;8.40;99.90;;;;;;5076522;28;20429;-82
2023/02/12 13:21:14;;;;;;;0.80;0.67;;;8.40;99.90;;;;;;5076369;28;20469;-83
2023/02/12 13:23:51;;;;;;;3.53;2.50;;;8.50;99.90;;;;;;5076104;28;20410;-82
2023/02/12 13:26:29;;;;;;;1.73;1.00;;;8.40;99.90;;;;;;5076242;28;20476;-82